sensor_id;sensor_type;location;lat;lon;timestamp;P1;durP1;ratioP1;P2;durP2;ratioP2
80183;SDS011;69682;52.138;5.440;2023-08-08T00:00:58;8.43;;;2.72;;
80183;SDS011;69682;52.138;5.440;2023-08-08T00:03:25;8.63;;;2.88;;
80183;SDS011;69682;52.138;5.440;2023-08-08T00:05:52;5.22;;;2.15;;
80183;SDS011;69682;52.138;5.440;2023-08-08T00:08:19;8.10;;;2.55;;
80183;SDS011;69682;52.138;5.440;2023-08-08T00:10:46;12.35;;;2.45;;
80183;SDS011;69682;52.138;5.440;2023-08-08T00:13:12;4.38;;;2.67;;
80183;SDS011;69682;52.138;5.440;2023-08-08T00:15:39;7.13;;;2.35;;
80183;SDS011;69682;52.138;5.440;2023-08-08T00:18:06;3.85;;;2.00;;
80183;SDS011;69682;52.138;5.440;2023-08-08T00:20:32;3.30;;;2.20;;
80183;SDS011;69682;52.138;5.440;2023-08-08T00:22:59;6.82;;;2.45;;
80183;SDS011;69682;52.138;5.440;2023-08-08T00:25:26;9.27;;;2.63;;
80183;SDS011;69682;52.138;5.440;2023-08-08T00:27:53;4.47;;;2.00;;
80183;SDS011;69682;52.138;5.440;2023-08-08T00:30:20;6.03;;;2.40;;
80183;SDS011;69682;52.138;5.440;2023-08-08T00:32:46;4.55;;;1.95;;
80183;SDS011;69682;52.138;5.440;2023-08-08T00:35:13;5.85;;;3.05;;
80183;SDS011;69682;52.138;5.440;2023-08-08T00:37:40;4.05;;;1.85;;
80183;SDS011;69682;52.138;5.440;2023-08-08T00:40:07;6.13;;;1.85;;
80183;SDS011;69682;52.138;5.440;2023-08-08T00:42:34;5.00;;;2.20;;
80183;SDS011;69682;52.138;5.440;2023-08-08T00:45:00;5.40;;;1.85;;
80183;SDS011;69682;52.138;5.440;2023-08-08T00:47:30;5.78;;;1.95;;
80183;SDS011;69682;52.138;5.440;2023-08-08T00:50:01;7.43;;;2.30;;
80183;SDS011;69682;52.138;5.440;2023-08-08T00:52:29;4.10;;;2.10;;
80183;SDS011;69682;52.138;5.440;2023-08-08T00:54:56;8.43;;;2.10;;
80183;SDS011;69682;52.138;5.440;2023-08-08T00:57:23;4.82;;;2.33;;
80183;SDS011;69682;52.138;5.440;2023-08-08T00:59:50;5.72;;;1.65;;
80183;SDS011;69682;52.138;5.440;2023-08-08T01:02:17;5.40;;;1.75;;
80183;SDS011;69682;52.138;5.440;2023-08-08T01:04:44;5.55;;;2.50;;
80183;SDS011;69682;52.138;5.440;2023-08-08T01:09:46;7.68;;;1.98;;
80183;SDS011;69682;52.138;5.440;2023-08-08T01:12:19;4.18;;;1.60;;
80183;SDS011;69682;52.138;5.440;2023-08-08T01:14:49;9.05;;;1.83;;
80183;SDS011;69682;52.138;5.440;2023-08-08T01:17:16;7.18;;;2.58;;
80183;SDS011;69682;52.138;5.440;2023-08-08T01:19:44;7.25;;;2.55;;
80183;SDS011;69682;52.138;5.440;2023-08-08T01:22:14;4.85;;;2.00;;
80183;SDS011;69682;52.138;5.440;2023-08-08T01:24:49;3.30;;;1.25;;
80183;SDS011;69682;52.138;5.440;2023-08-08T01:27:16;7.40;;;1.63;;
80183;SDS011;69682;52.138;5.440;2023-08-08T01:29:42;6.85;;;1.70;;
80183;SDS011;69682;52.138;5.440;2023-08-08T01:32:09;8.93;;;2.03;;
80183;SDS011;69682;52.138;5.440;2023-08-08T01:34:36;5.75;;;2.38;;
80183;SDS011;69682;52.138;5.440;2023-08-08T01:37:07;4.32;;;1.90;;
80183;SDS011;69682;52.138;5.440;2023-08-08T01:39:39;6.50;;;1.98;;
80183;SDS011;69682;52.138;5.440;2023-08-08T01:44:34;8.23;;;1.83;;
80183;SDS011;69682;52.138;5.440;2023-08-08T01:47:02;8.93;;;2.00;;
80183;SDS011;69682;52.138;5.440;2023-08-08T01:49:31;5.32;;;3.47;;
80183;SDS011;69682;52.138;5.440;2023-08-08T01:51:57;5.60;;;2.35;;
80183;SDS011;69682;52.138;5.440;2023-08-08T01:54:25;7.15;;;2.08;;
80183;SDS011;69682;52.138;5.440;2023-08-08T01:56:51;9.27;;;1.75;;
80183;SDS011;69682;52.138;5.440;2023-08-08T01:59:18;5.00;;;2.42;;
80183;SDS011;69682;52.138;5.440;2023-08-08T02:01:45;4.88;;;2.47;;
80183;SDS011;69682;52.138;5.440;2023-08-08T02:04:11;3.47;;;1.65;;
80183;SDS011;69682;52.138;5.440;2023-08-08T02:06:38;5.90;;;1.83;;
80183;SDS011;69682;52.138;5.440;2023-08-08T02:09:04;5.80;;;2.00;;
80183;SDS011;69682;52.138;5.440;2023-08-08T02:11:32;8.48;;;2.33;;
80183;SDS011;69682;52.138;5.440;2023-08-08T02:13:58;6.22;;;1.75;;
80183;SDS011;69682;52.138;5.440;2023-08-08T02:16:25;8.10;;;2.00;;
80183;SDS011;69682;52.138;5.440;2023-08-08T02:18:51;4.63;;;1.65;;
80183;SDS011;69682;52.138;5.440;2023-08-08T02:21:18;8.25;;;2.72;;
80183;SDS011;69682;52.138;5.440;2023-08-08T02:23:45;7.25;;;2.10;;
80183;SDS011;69682;52.138;5.440;2023-08-08T02:26:11;5.05;;;2.20;;
80183;SDS011;69682;52.138;5.440;2023-08-08T02:28:38;8.38;;;2.08;;
80183;SDS011;69682;52.138;5.440;2023-08-08T02:31:04;5.78;;;1.98;;
80183;SDS011;69682;52.138;5.440;2023-08-08T02:33:31;5.55;;;2.22;;
80183;SDS011;69682;52.138;5.440;2023-08-08T02:35:57;7.07;;;2.05;;
80183;SDS011;69682;52.138;5.440;2023-08-08T02:38:24;7.30;;;2.20;;
80183;SDS011;69682;52.138;5.440;2023-08-08T02:40:51;4.55;;;2.00;;
80183;SDS011;69682;52.138;5.440;2023-08-08T02:43:17;7.95;;;1.80;;
80183;SDS011;69682;52.138;5.440;2023-08-08T02:45:44;5.13;;;2.05;;
80183;SDS011;69682;52.138;5.440;2023-08-08T02:48:10;5.65;;;1.90;;
80183;SDS011;69682;52.138;5.440;2023-08-08T02:50:37;5.93;;;2.03;;
80183;SDS011;69682;52.138;5.440;2023-08-08T02:53:04;3.92;;;1.95;;
80183;SDS011;69682;52.138;5.440;2023-08-08T02:55:31;10.85;;;2.08;;
80183;SDS011;69682;52.138;5.440;2023-08-08T02:58:04;10.52;;;2.58;;
80183;SDS011;69682;52.138;5.440;2023-08-08T03:00:30;5.32;;;2.60;;
80183;SDS011;69682;52.138;5.440;2023-08-08T03:02:57;6.10;;;2.28;;
80183;SDS011;69682;52.138;5.440;2023-08-08T03:05:24;5.78;;;2.67;;
80183;SDS011;69682;52.138;5.440;2023-08-08T03:07:51;7.80;;;2.13;;
80183;SDS011;69682;52.138;5.440;2023-08-08T03:10:18;4.68;;;2.30;;
80183;SDS011;69682;52.138;5.440;2023-08-08T03:12:48;4.88;;;2.00;;
80183;SDS011;69682;52.138;5.440;2023-08-08T03:15:14;10.32;;;2.47;;
80183;SDS011;69682;52.138;5.440;2023-08-08T03:17:41;6.93;;;3.17;;
80183;SDS011;69682;52.138;5.440;2023-08-08T03:20:08;7.22;;;2.50;;
80183;SDS011;69682;52.138;5.440;2023-08-08T03:22:37;6.25;;;2.55;;
80183;SDS011;69682;52.138;5.440;2023-08-08T03:25:04;7.93;;;3.13;;
80183;SDS011;69682;52.138;5.440;2023-08-08T03:27:31;9.40;;;2.85;;
80183;SDS011;69682;52.138;5.440;2023-08-08T03:29:58;5.55;;;2.50;;
80183;SDS011;69682;52.138;5.440;2023-08-08T03:32:24;6.20;;;2.40;;
80183;SDS011;69682;52.138;5.440;2023-08-08T03:34:51;4.93;;;1.92;;
80183;SDS011;69682;52.138;5.440;2023-08-08T03:37:18;5.95;;;2.58;;
80183;SDS011;69682;52.138;5.440;2023-08-08T03:39:44;6.45;;;2.17;;
80183;SDS011;69682;52.138;5.440;2023-08-08T03:42:11;5.00;;;2.25;;
80183;SDS011;69682;52.138;5.440;2023-08-08T03:44:37;5.85;;;2.28;;
80183;SDS011;69682;52.138;5.440;2023-08-08T03:47:04;8.38;;;2.45;;
80183;SDS011;69682;52.138;5.440;2023-08-08T03:49:44;6.95;;;2.47;;
80183;SDS011;69682;52.138;5.440;2023-08-08T03:52:10;6.82;;;2.50;;
80183;SDS011;69682;52.138;5.440;2023-08-08T03:54:37;4.35;;;2.58;;
80183;SDS011;69682;52.138;5.440;2023-08-08T03:57:04;4.93;;;2.67;;
80183;SDS011;69682;52.138;5.440;2023-08-08T03:59:30;8.52;;;2.58;;
80183;SDS011;69682;52.138;5.440;2023-08-08T04:01:57;3.88;;;2.25;;
80183;SDS011;69682;52.138;5.440;2023-08-08T04:04:24;8.80;;;2.85;;
80183;SDS011;69682;52.138;5.440;2023-08-08T04:06:50;6.93;;;2.38;;
80183;SDS011;69682;52.138;5.440;2023-08-08T04:09:17;8.27;;;2.80;;
80183;SDS011;69682;52.138;5.440;2023-08-08T04:11:43;7.97;;;2.58;;
80183;SDS011;69682;52.138;5.440;2023-08-08T04:14:10;5.95;;;2.83;;
80183;SDS011;69682;52.138;5.440;2023-08-08T04:16:37;5.40;;;2.63;;
80183;SDS011;69682;52.138;5.440;2023-08-08T04:19:04;7.03;;;2.17;;
80183;SDS011;69682;52.138;5.440;2023-08-08T04:21:31;5.40;;;2.50;;
80183;SDS011;69682;52.138;5.440;2023-08-08T04:24:00;9.52;;;3.03;;
80183;SDS011;69682;52.138;5.440;2023-08-08T04:26:27;7.88;;;2.95;;
80183;SDS011;69682;52.138;5.440;2023-08-08T04:28:54;9.15;;;3.15;;
80183;SDS011;69682;52.138;5.440;2023-08-08T04:31:21;8.30;;;2.22;;
80183;SDS011;69682;52.138;5.440;2023-08-08T04:33:51;7.03;;;2.72;;
80183;SDS011;69682;52.138;5.440;2023-08-08T04:36:24;6.57;;;2.58;;
80183;SDS011;69682;52.138;5.440;2023-08-08T04:38:50;6.65;;;2.20;;
80183;SDS011;69682;52.138;5.440;2023-08-08T04:41:17;5.38;;;2.35;;
80183;SDS011;69682;52.138;5.440;2023-08-08T04:43:43;5.57;;;2.40;;
80183;SDS011;69682;52.138;5.440;2023-08-08T04:46:10;6.10;;;2.10;;
80183;SDS011;69682;52.138;5.440;2023-08-08T04:48:37;6.97;;;3.25;;
80183;SDS011;69682;52.138;5.440;2023-08-08T04:51:04;6.88;;;2.33;;
80183;SDS011;69682;52.138;5.440;2023-08-08T04:53:31;4.47;;;2.25;;
80183;SDS011;69682;52.138;5.440;2023-08-08T04:55:58;4.50;;;2.03;;
80183;SDS011;69682;52.138;5.440;2023-08-08T04:58:24;5.07;;;2.22;;
80183;SDS011;69682;52.138;5.440;2023-08-08T05:00:51;6.43;;;2.45;;
80183;SDS011;69682;52.138;5.440;2023-08-08T05:03:18;5.78;;;2.33;;
80183;SDS011;69682;52.138;5.440;2023-08-08T05:05:54;7.50;;;2.80;;
80183;SDS011;69682;52.138;5.440;2023-08-08T05:08:20;8.13;;;2.42;;
80183;SDS011;69682;52.138;5.440;2023-08-08T05:10:48;5.18;;;2.17;;
80183;SDS011;69682;52.138;5.440;2023-08-08T05:13:15;4.60;;;2.17;;
80183;SDS011;69682;52.138;5.440;2023-08-08T05:15:41;4.93;;;2.05;;
80183;SDS011;69682;52.138;5.440;2023-08-08T05:18:08;4.45;;;2.00;;
80183;SDS011;69682;52.138;5.440;2023-08-08T05:20:35;5.78;;;2.38;;
80183;SDS011;69682;52.138;5.440;2023-08-08T05:23:01;5.03;;;1.92;;
80183;SDS011;69682;52.138;5.440;2023-08-08T05:25:28;4.07;;;2.10;;
80183;SDS011;69682;52.138;5.440;2023-08-08T05:27:54;4.45;;;2.25;;
80183;SDS011;69682;52.138;5.440;2023-08-08T05:30:21;6.82;;;2.47;;
80183;SDS011;69682;52.138;5.440;2023-08-08T05:32:48;3.92;;;1.88;;
80183;SDS011;69682;52.138;5.440;2023-08-08T05:35:14;6.07;;;2.10;;
80183;SDS011;69682;52.138;5.440;2023-08-08T05:37:41;7.18;;;2.00;;
80183;SDS011;69682;52.138;5.440;2023-08-08T05:40:08;3.85;;;2.10;;
80183;SDS011;69682;52.138;5.440;2023-08-08T05:45:06;4.43;;;1.98;;
80183;SDS011;69682;52.138;5.440;2023-08-08T05:47:33;8.63;;;2.42;;
80183;SDS011;69682;52.138;5.440;2023-08-08T05:50:00;4.95;;;2.00;;
80183;SDS011;69682;52.138;5.440;2023-08-08T05:52:27;5.80;;;2.40;;
80183;SDS011;69682;52.138;5.440;2023-08-08T05:54:53;4.28;;;2.13;;
80183;SDS011;69682;52.138;5.440;2023-08-08T05:57:20;3.95;;;1.75;;
80183;SDS011;69682;52.138;5.440;2023-08-08T05:59:48;2.28;;;1.60;;
80183;SDS011;69682;52.138;5.440;2023-08-08T06:02:15;5.30;;;2.42;;
80183;SDS011;69682;52.138;5.440;2023-08-08T06:04:41;5.65;;;1.67;;
80183;SDS011;69682;52.138;5.440;2023-08-08T06:07:08;4.43;;;1.90;;
80183;SDS011;69682;52.138;5.440;2023-08-08T06:09:36;3.97;;;1.50;;
80183;SDS011;69682;52.138;5.440;2023-08-08T06:12:04;5.50;;;1.40;;
80183;SDS011;69682;52.138;5.440;2023-08-08T06:14:31;3.42;;;1.20;;
80183;SDS011;69682;52.138;5.440;2023-08-08T06:16:58;3.70;;;1.63;;
80183;SDS011;69682;52.138;5.440;2023-08-08T06:19:24;2.28;;;1.50;;
80183;SDS011;69682;52.138;5.440;2023-08-08T06:21:51;3.40;;;1.17;;
80183;SDS011;69682;52.138;5.440;2023-08-08T06:24:18;4.97;;;1.63;;
80183;SDS011;69682;52.138;5.440;2023-08-08T06:26:44;3.53;;;1.10;;
80183;SDS011;69682;52.138;5.440;2023-08-08T06:29:11;6.50;;;1.40;;
80183;SDS011;69682;52.138;5.440;2023-08-08T06:31:42;4.22;;;1.27;;
80183;SDS011;69682;52.138;5.440;2023-08-08T06:34:09;1.67;;;1.00;;
80183;SDS011;69682;52.138;5.440;2023-08-08T06:36:36;2.80;;;1.13;;
80183;SDS011;69682;52.138;5.440;2023-08-08T06:39:02;3.72;;;1.10;;
80183;SDS011;69682;52.138;5.440;2023-08-08T06:41:29;3.60;;;1.23;;
80183;SDS011;69682;52.138;5.440;2023-08-08T06:43:56;3.90;;;1.25;;
80183;SDS011;69682;52.138;5.440;2023-08-08T06:46:23;1.92;;;1.02;;
80183;SDS011;69682;52.138;5.440;2023-08-08T06:48:51;5.25;;;1.13;;
80183;SDS011;69682;52.138;5.440;2023-08-08T06:51:23;2.40;;;0.82;;
80183;SDS011;69682;52.138;5.440;2023-08-08T06:53:51;7.43;;;1.45;;
80183;SDS011;69682;52.138;5.440;2023-08-08T06:56:17;3.20;;;1.15;;
80183;SDS011;69682;52.138;5.440;2023-08-08T06:58:44;2.05;;;0.93;;
80183;SDS011;69682;52.138;5.440;2023-08-08T07:01:11;3.17;;;0.95;;
80183;SDS011;69682;52.138;5.440;2023-08-08T07:03:37;4.13;;;0.73;;
80183;SDS011;69682;52.138;5.440;2023-08-08T07:06:04;1.80;;;1.30;;
80183;SDS011;69682;52.138;5.440;2023-08-08T07:08:32;2.92;;;0.85;;
80183;SDS011;69682;52.138;5.440;2023-08-08T07:10:59;1.90;;;0.80;;
80183;SDS011;69682;52.138;5.440;2023-08-08T07:13:34;1.30;;;0.82;;
80183;SDS011;69682;52.138;5.440;2023-08-08T07:16:01;4.05;;;1.00;;
80183;SDS011;69682;52.138;5.440;2023-08-08T07:18:28;8.43;;;1.25;;
80183;SDS011;69682;52.138;5.440;2023-08-08T07:20:54;5.22;;;1.10;;
80183;SDS011;69682;52.138;5.440;2023-08-08T07:23:23;4.85;;;0.88;;
80183;SDS011;69682;52.138;5.440;2023-08-08T07:25:49;1.38;;;0.90;;
80183;SDS011;69682;52.138;5.440;2023-08-08T07:28:17;2.88;;;0.80;;
80183;SDS011;69682;52.138;5.440;2023-08-08T07:30:44;2.47;;;0.82;;
80183;SDS011;69682;52.138;5.440;2023-08-08T07:33:13;3.10;;;0.80;;
80183;SDS011;69682;52.138;5.440;2023-08-08T07:35:43;1.92;;;0.60;;
80183;SDS011;69682;52.138;5.440;2023-08-08T07:38:30;2.63;;;0.90;;
80183;SDS011;69682;52.138;5.440;2023-08-08T07:40:57;3.08;;;0.77;;
80183;SDS011;69682;52.138;5.440;2023-08-08T07:43:23;2.78;;;0.70;;
80183;SDS011;69682;52.138;5.440;2023-08-08T07:45:50;4.68;;;0.98;;
80183;SDS011;69682;52.138;5.440;2023-08-08T07:48:17;2.40;;;0.65;;
80183;SDS011;69682;52.138;5.440;2023-08-08T07:50:43;1.30;;;0.90;;
80183;SDS011;69682;52.138;5.440;2023-08-08T07:53:13;1.50;;;0.93;;
80183;SDS011;69682;52.138;5.440;2023-08-08T07:55:40;8.07;;;0.57;;
80183;SDS011;69682;52.138;5.440;2023-08-08T07:58:06;2.30;;;0.73;;
80183;SDS011;69682;52.138;5.440;2023-08-08T08:00:33;3.75;;;1.38;;
80183;SDS011;69682;52.138;5.440;2023-08-08T08:03:00;0.90;;;0.60;;
80183;SDS011;69682;52.138;5.440;2023-08-08T08:05:27;1.05;;;0.82;;
80183;SDS011;69682;52.138;5.440;2023-08-08T08:07:53;2.72;;;0.60;;
80183;SDS011;69682;52.138;5.440;2023-08-08T08:10:20;3.20;;;0.95;;
80183;SDS011;69682;52.138;5.440;2023-08-08T08:12:47;2.45;;;0.63;;
80183;SDS011;69682;52.138;5.440;2023-08-08T08:15:13;3.50;;;0.63;;
80183;SDS011;69682;52.138;5.440;2023-08-08T08:17:40;3.28;;;1.10;;
80183;SDS011;69682;52.138;5.440;2023-08-08T08:20:08;2.13;;;1.50;;
80183;SDS011;69682;52.138;5.440;2023-08-08T08:22:38;2.75;;;0.88;;
80183;SDS011;69682;52.138;5.440;2023-08-08T08:25:05;1.38;;;0.52;;
80183;SDS011;69682;52.138;5.440;2023-08-08T08:27:35;0.60;;;0.43;;
80183;SDS011;69682;52.138;5.440;2023-08-08T08:30:05;1.08;;;0.70;;
80183;SDS011;69682;52.138;5.440;2023-08-08T08:32:34;2.75;;;0.45;;
80183;SDS011;69682;52.138;5.440;2023-08-08T08:37:35;0.57;;;0.32;;
80183;SDS011;69682;52.138;5.440;2023-08-08T08:40:02;1.75;;;0.52;;
80183;SDS011;69682;52.138;5.440;2023-08-08T08:42:31;0.73;;;0.40;;
80183;SDS011;69682;52.138;5.440;2023-08-08T08:44:59;2.08;;;0.95;;
80183;SDS011;69682;52.138;5.440;2023-08-08T08:47:29;1.33;;;0.80;;
80183;SDS011;69682;52.138;5.440;2023-08-08T08:49:57;1.02;;;0.43;;
80183;SDS011;69682;52.138;5.440;2023-08-08T08:52:24;1.15;;;1.02;;
80183;SDS011;69682;52.138;5.440;2023-08-08T08:54:51;5.15;;;0.82;;
80183;SDS011;69682;52.138;5.440;2023-08-08T09:00:12;1.95;;;0.40;;
80183;SDS011;69682;52.138;5.440;2023-08-08T09:02:42;0.70;;;0.60;;
80183;SDS011;69682;52.138;5.440;2023-08-08T09:05:09;1.33;;;0.80;;
80183;SDS011;69682;52.138;5.440;2023-08-08T09:07:38;2.40;;;0.60;;
80183;SDS011;69682;52.138;5.440;2023-08-08T09:10:05;1.60;;;0.47;;
80183;SDS011;69682;52.138;5.440;2023-08-08T09:12:32;2.03;;;0.60;;
80183;SDS011;69682;52.138;5.440;2023-08-08T09:15:01;0.65;;;0.40;;
80183;SDS011;69682;52.138;5.440;2023-08-08T09:17:30;0.60;;;0.55;;
80183;SDS011;69682;52.138;5.440;2023-08-08T09:20:13;1.38;;;0.63;;
80183;SDS011;69682;52.138;5.440;2023-08-08T09:22:40;2.17;;;0.63;;
80183;SDS011;69682;52.138;5.440;2023-08-08T09:25:07;2.60;;;0.50;;
80183;SDS011;69682;52.138;5.440;2023-08-08T09:27:34;1.23;;;0.90;;
80183;SDS011;69682;52.138;5.440;2023-08-08T09:30:03;1.38;;;0.70;;
80183;SDS011;69682;52.138;5.440;2023-08-08T09:32:39;1.80;;;0.63;;
80183;SDS011;69682;52.138;5.440;2023-08-08T09:35:06;1.15;;;0.40;;
80183;SDS011;69682;52.138;5.440;2023-08-08T09:37:37;0.85;;;0.65;;
80183;SDS011;69682;52.138;5.440;2023-08-08T09:42:34;0.35;;;0.35;;
80183;SDS011;69682;52.138;5.440;2023-08-08T09:45:01;0.63;;;0.52;;
80183;SDS011;69682;52.138;5.440;2023-08-08T09:47:28;1.23;;;0.63;;
80183;SDS011;69682;52.138;5.440;2023-08-08T09:49:59;1.20;;;0.43;;
80183;SDS011;69682;52.138;5.440;2023-08-08T09:52:27;1.20;;;0.65;;
80183;SDS011;69682;52.138;5.440;2023-08-08T09:54:54;2.70;;;0.70;;
80183;SDS011;69682;52.138;5.440;2023-08-08T09:57:22;3.38;;;0.63;;
80183;SDS011;69682;52.138;5.440;2023-08-08T09:59:49;1.48;;;0.82;;
80183;SDS011;69682;52.138;5.440;2023-08-08T10:02:17;1.20;;;0.73;;
80183;SDS011;69682;52.138;5.440;2023-08-08T10:04:47;4.22;;;0.90;;
80183;SDS011;69682;52.138;5.440;2023-08-08T10:07:14;1.00;;;0.85;;
80183;SDS011;69682;52.138;5.440;2023-08-08T10:09:41;0.73;;;0.55;;
80183;SDS011;69682;52.138;5.440;2023-08-08T10:12:08;1.58;;;0.73;;
80183;SDS011;69682;52.138;5.440;2023-08-08T10:14:37;0.70;;;0.47;;
80183;SDS011;69682;52.138;5.440;2023-08-08T10:17:07;3.78;;;0.60;;
80183;SDS011;69682;52.138;5.440;2023-08-08T10:19:34;3.08;;;0.80;;
80183;SDS011;69682;52.138;5.440;2023-08-08T10:22:05;1.38;;;0.60;;
80183;SDS011;69682;52.138;5.440;2023-08-08T10:24:34;1.27;;;0.75;;
80183;SDS011;69682;52.138;5.440;2023-08-08T10:27:02;2.67;;;0.75;;
80183;SDS011;69682;52.138;5.440;2023-08-08T10:29:38;1.73;;;0.77;;
80183;SDS011;69682;52.138;5.440;2023-08-08T10:32:05;1.33;;;0.63;;
80183;SDS011;69682;52.138;5.440;2023-08-08T10:34:36;1.13;;;0.55;;
80183;SDS011;69682;52.138;5.440;2023-08-08T10:37:11;0.93;;;0.70;;
80183;SDS011;69682;52.138;5.440;2023-08-08T10:39:53;3.72;;;1.08;;
80183;SDS011;69682;52.138;5.440;2023-08-08T10:42:22;0.70;;;0.52;;
80183;SDS011;69682;52.138;5.440;2023-08-08T10:44:54;1.25;;;0.70;;
80183;SDS011;69682;52.138;5.440;2023-08-08T10:47:25;1.15;;;0.70;;
80183;SDS011;69682;52.138;5.440;2023-08-08T10:50:04;1.48;;;0.93;;
80183;SDS011;69682;52.138;5.440;2023-08-08T10:52:58;1.00;;;0.60;;
80183;SDS011;69682;52.138;5.440;2023-08-08T10:55:32;1.98;;;1.40;;
80183;SDS011;69682;52.138;5.440;2023-08-08T10:58:05;1.80;;;0.77;;
80183;SDS011;69682;52.138;5.440;2023-08-08T11:00:34;3.45;;;0.57;;
80183;SDS011;69682;52.138;5.440;2023-08-08T11:03:02;3.80;;;0.70;;
80183;SDS011;69682;52.138;5.440;2023-08-08T11:05:33;1.55;;;0.43;;
80183;SDS011;69682;52.138;5.440;2023-08-08T11:08:03;3.17;;;0.55;;
80183;SDS011;69682;52.138;5.440;2023-08-08T11:10:40;0.52;;;0.45;;
80183;SDS011;69682;52.138;5.440;2023-08-08T11:13:06;1.10;;;0.63;;
80183;SDS011;69682;52.138;5.440;2023-08-08T11:15:35;2.95;;;0.60;;
80183;SDS011;69682;52.138;5.440;2023-08-08T11:18:04;2.15;;;0.75;;
80183;SDS011;69682;52.138;5.440;2023-08-08T11:20:32;1.10;;;0.50;;
80183;SDS011;69682;52.138;5.440;2023-08-08T11:23:00;2.33;;;0.68;;
80183;SDS011;69682;52.138;5.440;2023-08-08T11:25:29;1.58;;;1.13;;
80183;SDS011;69682;52.138;5.440;2023-08-08T11:27:57;1.83;;;0.70;;
80183;SDS011;69682;52.138;5.440;2023-08-08T11:30:27;0.80;;;0.52;;
80183;SDS011;69682;52.138;5.440;2023-08-08T11:33:00;2.88;;;0.88;;
80183;SDS011;69682;52.138;5.440;2023-08-08T11:35:30;2.42;;;0.47;;
80183;SDS011;69682;52.138;5.440;2023-08-08T11:37:58;3.63;;;1.02;;
80183;SDS011;69682;52.138;5.440;2023-08-08T11:40:25;2.88;;;0.82;;
80183;SDS011;69682;52.138;5.440;2023-08-08T11:42:54;1.75;;;0.93;;
80183;SDS011;69682;52.138;5.440;2023-08-08T11:45:22;1.25;;;0.95;;
80183;SDS011;69682;52.138;5.440;2023-08-08T11:47:49;0.88;;;0.43;;
80183;SDS011;69682;52.138;5.440;2023-08-08T11:50:21;2.47;;;0.55;;
80183;SDS011;69682;52.138;5.440;2023-08-08T11:52:51;2.70;;;0.57;;
80183;SDS011;69682;52.138;5.440;2023-08-08T11:55:20;3.08;;;1.48;;
80183;SDS011;69682;52.138;5.440;2023-08-08T11:57:48;1.13;;;0.60;;
80183;SDS011;69682;52.138;5.440;2023-08-08T12:00:16;1.05;;;0.52;;
80183;SDS011;69682;52.138;5.440;2023-08-08T12:02:44;1.33;;;0.93;;
80183;SDS011;69682;52.138;5.440;2023-08-08T12:07:40;1.27;;;0.80;;
80183;SDS011;69682;52.138;5.440;2023-08-08T12:10:15;0.98;;;0.70;;
80183;SDS011;69682;52.138;5.440;2023-08-08T12:12:52;0.52;;;0.40;;
80183;SDS011;69682;52.138;5.440;2023-08-08T12:15:20;0.95;;;0.55;;
80183;SDS011;69682;52.138;5.440;2023-08-08T12:17:47;1.65;;;0.43;;
80183;SDS011;69682;52.138;5.440;2023-08-08T12:20:14;0.70;;;0.50;;
80183;SDS011;69682;52.138;5.440;2023-08-08T12:22:41;1.50;;;0.65;;
80183;SDS011;69682;52.138;5.440;2023-08-08T12:25:11;2.95;;;0.70;;
80183;SDS011;69682;52.138;5.440;2023-08-08T12:27:38;0.80;;;0.47;;
80183;SDS011;69682;52.138;5.440;2023-08-08T12:30:05;1.88;;;0.73;;
80183;SDS011;69682;52.138;5.440;2023-08-08T12:32:33;2.30;;;0.50;;
80183;SDS011;69682;52.138;5.440;2023-08-08T12:35:00;2.38;;;0.80;;
80183;SDS011;69682;52.138;5.440;2023-08-08T12:37:26;0.82;;;0.50;;
80183;SDS011;69682;52.138;5.440;2023-08-08T12:39:56;4.18;;;0.82;;
80183;SDS011;69682;52.138;5.440;2023-08-08T12:42:23;1.63;;;0.75;;
80183;SDS011;69682;52.138;5.440;2023-08-08T12:44:50;1.27;;;0.95;;
80183;SDS011;69682;52.138;5.440;2023-08-08T12:47:27;0.80;;;0.73;;
80183;SDS011;69682;52.138;5.440;2023-08-08T12:49:55;0.57;;;0.52;;
80183;SDS011;69682;52.138;5.440;2023-08-08T12:52:22;4.40;;;1.67;;
80183;SDS011;69682;52.138;5.440;2023-08-08T12:54:51;3.03;;;0.63;;
80183;SDS011;69682;52.138;5.440;2023-08-08T12:57:18;3.25;;;0.77;;
80183;SDS011;69682;52.138;5.440;2023-08-08T12:59:45;2.40;;;0.85;;
80183;SDS011;69682;52.138;5.440;2023-08-08T13:02:11;1.92;;;0.90;;
80183;SDS011;69682;52.138;5.440;2023-08-08T13:04:38;0.85;;;0.63;;
80183;SDS011;69682;52.138;5.440;2023-08-08T13:07:05;1.17;;;0.68;;
80183;SDS011;69682;52.138;5.440;2023-08-08T13:09:37;1.02;;;0.65;;
80183;SDS011;69682;52.138;5.440;2023-08-08T13:12:17;1.55;;;0.70;;
80183;SDS011;69682;52.138;5.440;2023-08-08T13:14:44;1.33;;;0.65;;
80183;SDS011;69682;52.138;5.440;2023-08-08T13:17:10;4.28;;;0.80;;
80183;SDS011;69682;52.138;5.440;2023-08-08T13:19:37;1.30;;;0.70;;
80183;SDS011;69682;52.138;5.440;2023-08-08T13:22:04;4.60;;;0.70;;
80183;SDS011;69682;52.138;5.440;2023-08-08T13:24:30;1.90;;;0.55;;
80183;SDS011;69682;52.138;5.440;2023-08-08T13:26:57;4.60;;;1.38;;
80183;SDS011;69682;52.138;5.440;2023-08-08T13:29:24;2.63;;;0.90;;
80183;SDS011;69682;52.138;5.440;2023-08-08T13:31:50;2.20;;;0.70;;
80183;SDS011;69682;52.138;5.440;2023-08-08T13:34:17;3.22;;;0.70;;
80183;SDS011;69682;52.138;5.440;2023-08-08T13:36:44;2.88;;;1.00;;
80183;SDS011;69682;52.138;5.440;2023-08-08T13:39:11;2.85;;;0.70;;
80183;SDS011;69682;52.138;5.440;2023-08-08T13:41:37;2.83;;;0.57;;
80183;SDS011;69682;52.138;5.440;2023-08-08T13:44:22;3.40;;;0.70;;
80183;SDS011;69682;52.138;5.440;2023-08-08T13:46:48;2.40;;;0.70;;
80183;SDS011;69682;52.138;5.440;2023-08-08T13:49:15;2.05;;;0.65;;
80183;SDS011;69682;52.138;5.440;2023-08-08T13:51:51;1.55;;;1.00;;
80183;SDS011;69682;52.138;5.440;2023-08-08T13:54:18;0.45;;;0.40;;
80183;SDS011;69682;52.138;5.440;2023-08-08T13:56:44;2.08;;;0.60;;
80183;SDS011;69682;52.138;5.440;2023-08-08T13:59:11;1.52;;;0.63;;
80183;SDS011;69682;52.138;5.440;2023-08-08T14:01:38;1.58;;;0.70;;
80183;SDS011;69682;52.138;5.440;2023-08-08T14:04:05;1.50;;;0.70;;
80183;SDS011;69682;52.138;5.440;2023-08-08T14:06:31;3.50;;;0.68;;
80183;SDS011;69682;52.138;5.440;2023-08-08T14:08:58;1.98;;;0.77;;
80183;SDS011;69682;52.138;5.440;2023-08-08T14:11:24;2.17;;;0.60;;
80183;SDS011;69682;52.138;5.440;2023-08-08T14:14:01;1.25;;;0.60;;
80183;SDS011;69682;52.138;5.440;2023-08-08T14:16:28;1.63;;;0.57;;
80183;SDS011;69682;52.138;5.440;2023-08-08T14:18:54;2.00;;;0.77;;
80183;SDS011;69682;52.138;5.440;2023-08-08T14:21:24;3.55;;;1.20;;
80183;SDS011;69682;52.138;5.440;2023-08-08T14:23:53;1.88;;;0.75;;
80183;SDS011;69682;52.138;5.440;2023-08-08T14:26:20;3.22;;;0.73;;
80183;SDS011;69682;52.138;5.440;2023-08-08T14:28:46;1.20;;;0.75;;
80183;SDS011;69682;52.138;5.440;2023-08-08T14:31:13;3.97;;;0.73;;
80183;SDS011;69682;52.138;5.440;2023-08-08T14:33:40;3.80;;;2.45;;
80183;SDS011;69682;52.138;5.440;2023-08-08T14:36:06;3.10;;;0.90;;
80183;SDS011;69682;52.138;5.440;2023-08-08T14:38:34;3.33;;;0.63;;
80183;SDS011;69682;52.138;5.440;2023-08-08T14:41:02;1.33;;;0.80;;
80183;SDS011;69682;52.138;5.440;2023-08-08T14:43:29;1.33;;;0.47;;
80183;SDS011;69682;52.138;5.440;2023-08-08T14:45:55;3.08;;;0.82;;
80183;SDS011;69682;52.138;5.440;2023-08-08T14:48:22;3.42;;;0.80;;
80183;SDS011;69682;52.138;5.440;2023-08-08T14:50:49;0.95;;;0.73;;
80183;SDS011;69682;52.138;5.440;2023-08-08T14:53:15;1.50;;;0.63;;
80183;SDS011;69682;52.138;5.440;2023-08-08T14:55:42;1.23;;;0.57;;
80183;SDS011;69682;52.138;5.440;2023-08-08T14:58:08;0.98;;;0.55;;
80183;SDS011;69682;52.138;5.440;2023-08-08T15:00:35;1.70;;;0.73;;
80183;SDS011;69682;52.138;5.440;2023-08-08T15:06:05;2.35;;;0.90;;
80183;SDS011;69682;52.138;5.440;2023-08-08T15:08:32;0.85;;;0.50;;
80183;SDS011;69682;52.138;5.440;2023-08-08T15:10:58;4.20;;;0.90;;
80183;SDS011;69682;52.138;5.440;2023-08-08T15:13:25;1.15;;;0.70;;